Terminal Aerodrome Forecast
Issued by NWS Newport/Morehead City, NC

Home | Current Version | Previous Version | Text Only | Print | Product List | Glossary Off
Versions: 1 2 3 4 5 6 7 8 9 10 11 12 13 14 15 16 17 18 19 20 21 22 23 24 25 26 27 28 29 30 31 32 33 34

000
FTUS42 KMHX 222244 AAG
TAFEWN
TAF AMD
KEWN 222244Z 2223/2318 09005KT 1SM SHRA BKN025
     FM230000 07005KT P6SM VCTS OVC025CB
     FM230200 VRB04KT P6SM VCSH BKN008 OVC025
     FM230900 VRB03KT 3SM BR BKN003 OVC025
     FM231300 VRB03KT P6SM BKN008 BKN050
     FM231500 VRB04KT P6SM BKN100=

USA.gov is the U.S. government's official web portal to all federal, state and local government web resources and services.